Time;durP1;ratioP1;P1;durP2;ratioP2;P2;SDS_P1;SDS_P2;PMS_P1;PMS_P2;Temp;Humidity;BMP_temperature;BMP_pressure;BME280_temperature;BME280_humidity;BME280_pressure;Samples;Min_cycle;Max_cycle;Signal;HPM_P1;HPM_P2
2023/09/15 00:01:49;;;;;;;20.60;14.73;;;16.30;53.00;;;;;;5108466;27;46525;-84
2023/09/15 00:04:15;;;;;;;23.00;15.40;;;16.30;53.30;;;;;;5108773;27;46438;-83
2023/09/15 00:06:42;;;;;;;27.73;16.37;;;16.30;53.30;;;;;;5095103;27;48430;-84
2023/09/15 00:09:14;;;;;;;20.30;14.40;;;16.30;53.50;;;;;;5096333;27;46006;-84
2023/09/15 00:11:40;;;;;;;23.43;14.43;;;16.20;53.80;;;;;;5094253;27;46419;-83
2023/09/15 00:14:13;;;;;;;24.43;15.07;;;16.20;54.30;;;;;;5091076;27;47216;-85
2023/09/15 00:16:40;;;;;;;25.03;15.83;;;16.10;54.30;;;;;;5104450;27;46557;-85
2023/09/15 00:19:06;;;;;;;25.23;15.57;;;16.00;54.60;;;;;;5108231;27;46489;-84
2023/09/15 00:21:33;;;;;;;25.40;17.27;;;16.00;55.20;;;;;;5110567;27;46758;-84
2023/09/15 00:24:01;;;;;;;30.73;17.43;;;16.00;55.30;;;;;;5091002;27;46566;-86
2023/09/15 00:26:29;;;;;;;27.43;16.43;;;16.00;55.60;;;;;;5092084;27;48102;-85
2023/09/15 00:28:56;;;;;;;35.17;17.70;;;16.00;55.80;;;;;;5106878;27;47185;-83
2023/09/15 00:31:23;;;;;;;28.20;17.83;;;15.90;55.90;;;;;;5090980;27;46549;-84
2023/09/15 00:33:49;;;;;;;28.60;17.50;;;15.80;56.20;;;;;;5105498;27;46540;-83
2023/09/15 00:36:15;;;;;;;32.37;18.43;;;15.80;56.80;;;;;;5104963;27;47555;-83
2023/09/15 00:38:40;;;;;;;28.20;17.27;;;15.80;57.00;;;;;;5093780;27;47031;-83
2023/09/15 00:41:06;;;;;;;25.07;16.20;;;15.80;56.80;;;;;;5106533;27;46466;-83
2023/09/15 00:43:32;;;;;;;29.27;17.43;;;15.80;56.90;;;;;;5106796;27;46476;-83
2023/09/15 00:45:57;;;;;;;28.33;17.10;;;15.70;56.90;;;;;;5088317;27;48393;-84
2023/09/15 00:48:23;;;;;;;29.30;18.87;;;15.70;56.90;;;;;;5094155;27;47083;-83
2023/09/15 00:50:48;;;;;;;27.53;18.77;;;15.70;56.90;;;;;;5108628;27;46418;-83
2023/09/15 00:53:19;;;;;;;28.33;18.03;;;15.70;56.90;;;;;;5111255;27;46391;-83
2023/09/15 00:55:47;;;;;;;33.10;18.97;;;15.60;56.80;;;;;;5111232;27;46770;-83
2023/09/15 00:58:16;;;;;;;33.57;19.80;;;15.50;56.70;;;;;;5110273;27;46822;-84
2023/09/15 01:00:43;;;;;;;31.10;18.60;;;15.50;57.10;;;;;;5108841;27;46474;-82
2023/09/15 01:03:20;;;;;;;31.50;19.03;;;15.50;57.80;;;;;;5110523;27;47023;-83
2023/09/15 01:05:46;;;;;;;27.53;17.80;;;15.40;58.00;;;;;;5099182;27;49291;-83
2023/09/15 01:08:12;;;;;;;32.97;18.40;;;15.40;57.90;;;;;;5110577;27;46350;-84
2023/09/15 01:10:38;;;;;;;30.70;19.00;;;15.50;58.10;;;;;;5098679;27;46343;-83
2023/09/15 01:13:04;;;;;;;27.77;19.10;;;15.40;58.30;;;;;;5113254;27;46503;-83
2023/09/15 01:15:33;;;;;;;26.30;17.70;;;15.30;58.70;;;;;;5095652;27;47483;-84
2023/09/15 01:18:32;;;;;;;29.80;17.10;;;15.30;58.80;;;;;;5094494;27;46569;-83
2023/09/15 01:21:01;;;;;;;35.03;19.60;;;15.30;58.80;;;;;;5116168;27;46525;-85
2023/09/15 01:23:42;;;;;;;28.67;17.33;;;15.30;58.80;;;;;;5100839;27;46467;-82
2023/09/15 01:26:29;;;;;;;32.60;17.50;;;15.30;58.90;;;;;;5103025;27;48642;-82
2023/09/15 01:29:18;;;;;;;24.73;17.17;;;15.20;59.10;;;;;;5108862;27;46529;-82
2023/09/15 01:31:46;;;;;;;25.77;16.70;;;15.20;59.10;;;;;;5110361;27;46885;-84
2023/09/15 01:34:16;;;;;;;32.10;19.67;;;15.20;59.30;;;;;;5108920;27;46532;-83
2023/09/15 01:36:43;;;;;;;29.00;18.10;;;15.10;59.40;;;;;;5111884;27;46724;-85
2023/09/15 01:39:09;;;;;;;31.53;18.87;;;15.10;59.70;;;;;;5089024;27;46573;-80
2023/09/15 01:41:35;;;;;;;30.17;18.30;;;15.10;60.00;;;;;;5095101;27;46797;-81
2023/09/15 01:44:01;;;;;;;29.00;18.67;;;15.10;60.00;;;;;;5116761;27;46836;-81
2023/09/15 01:46:26;;;;;;;27.50;17.73;;;15.00;60.20;;;;;;5113222;27;46434;-82
2023/09/15 01:48:56;;;;;;;27.13;17.60;;;15.00;60.50;;;;;;5111268;27;46902;-84
2023/09/15 01:51:23;;;;;;;30.00;18.47;;;15.00;60.70;;;;;;5110292;27;46686;-83
2023/09/15 01:53:52;;;;;;;29.13;19.17;;;15.00;61.00;;;;;;5108628;27;46802;-86
2023/09/15 01:56:18;;;;;;;32.80;19.20;;;14.90;61.10;;;;;;5094823;27;48128;-81
2023/09/15 01:58:45;;;;;;;32.63;19.10;;;14.90;61.20;;;;;;5108000;27;46398;-83
2023/09/15 02:01:11;;;;;;;32.43;19.40;;;14.80;61.20;;;;;;5094523;27;46757;-82
2023/09/15 02:03:37;;;;;;;36.13;19.20;;;14.90;61.40;;;;;;5109686;27;47899;-82
2023/09/15 02:06:04;;;;;;;25.27;17.90;;;14.90;61.50;;;;;;5107415;27;46626;-83
2023/09/15 02:08:31;;;;;;;32.80;19.80;;;14.80;61.60;;;;;;5095243;27;46713;-84
2023/09/15 02:10:57;;;;;;;31.23;19.37;;;14.90;61.60;;;;;;5112292;27;46386;-81
2023/09/15 02:13:22;;;;;;;33.90;19.50;;;14.80;61.60;;;;;;5093147;27;46392;-82
2023/09/15 02:15:52;;;;;;;36.30;18.87;;;14.80;61.80;;;;;;5095823;27;49424;-82
2023/09/15 02:18:18;;;;;;;30.80;18.83;;;14.80;61.70;;;;;;5092173;27;45941;-82
2023/09/15 02:20:44;;;;;;;27.97;18.27;;;14.80;61.70;;;;;;5111246;27;46517;-85
2023/09/15 02:23:09;;;;;;;29.83;18.93;;;14.80;61.60;;;;;;5093891;27;46533;-83
2023/09/15 02:25:35;;;;;;;28.67;18.63;;;14.80;61.70;;;;;;5092940;27;48443;-84
2023/09/15 02:28:02;;;;;;;32.80;18.57;;;14.70;61.50;;;;;;5107709;27;46303;-83
2023/09/15 02:30:28;;;;;;;27.73;17.50;;;14.70;61.50;;;;;;5108946;27;46430;-85
2023/09/15 02:32:53;;;;;;;29.13;17.67;;;14.80;61.50;;;;;;5113306;27;46627;-87
2023/09/15 02:35:20;;;;;;;30.17;18.90;;;14.70;61.50;;;;;;5111260;27;46773;-83
2023/09/15 02:37:45;;;;;;;29.70;17.57;;;14.60;61.50;;;;;;5113427;27;46469;-85
2023/09/15 02:40:14;;;;;;;30.73;18.30;;;14.60;61.50;;;;;;5113151;27;46432;-83
2023/09/15 02:42:40;;;;;;;29.70;17.60;;;14.60;61.60;;;;;;5091254;27;46692;-85
2023/09/15 02:45:06;;;;;;;30.40;18.33;;;14.50;61.40;;;;;;5108428;27;47124;-84
2023/09/15 02:47:32;;;;;;;24.30;16.27;;;14.50;61.40;;;;;;5111975;27;47329;-82
2023/09/15 02:49:57;;;;;;;24.73;16.03;;;14.50;61.50;;;;;;5103797;27;46430;-84
2023/09/15 02:52:23;;;;;;;24.00;16.67;;;14.30;62.90;;;;;;5079285;27;46946;-85
2023/09/15 02:54:49;;;;;;;21.70;15.43;;;14.30;61.90;;;;;;5112046;27;46952;-82
2023/09/15 02:57:14;;;;;;;25.80;14.20;;;14.10;61.80;;;;;;5111513;27;46599;-81
2023/09/15 02:59:40;;;;;;;21.60;14.67;;;14.20;62.20;;;;;;5115470;27;46429;-82
2023/09/15 03:02:12;;;;;;;25.53;15.27;;;14.00;62.00;;;;;;5093321;27;45943;-81
2023/09/15 03:04:39;;;;;;;30.73;17.80;;;13.90;62.60;;;;;;5101288;27;46320;-79
2023/09/15 03:07:06;;;;;;;32.57;18.50;;;13.90;62.00;;;;;;5116958;27;46481;-82
2023/09/15 03:09:32;;;;;;;30.70;19.60;;;13.90;62.10;;;;;;5109466;27;46569;-80
2023/09/15 03:12:00;;;;;;;26.93;16.43;;;13.90;62.20;;;;;;5113084;27;46566;-81
2023/09/15 03:14:26;;;;;;;35.33;17.30;;;13.90;62.20;;;;;;5096002;27;46521;-79
2023/09/15 03:16:52;;;;;;;29.03;16.70;;;13.90;62.10;;;;;;5114102;27;46401;-80
2023/09/15 03:19:18;;;;;;;26.70;16.90;;;13.90;62.00;;;;;;5098221;27;46378;-81
2023/09/15 03:21:43;;;;;;;36.90;19.27;;;13.90;61.80;;;;;;5097576;27;46474;-81
2023/09/15 03:24:09;;;;;;;34.80;19.03;;;13.90;61.90;;;;;;5096796;27;48099;-82
2023/09/15 03:26:35;;;;;;;43.67;22.90;;;13.90;61.80;;;;;;5101447;27;46425;-80
2023/09/15 03:29:01;;;;;;;36.73;20.10;;;13.90;61.90;;;;;;5100158;27;46976;-82
2023/09/15 03:31:27;;;;;;;40.27;21.37;;;13.90;62.10;;;;;;5099913;27;46368;-81
2023/09/15 03:33:53;;;;;;;44.83;21.43;;;13.90;62.30;;;;;;5095015;27;47975;-83
2023/09/15 03:36:18;;;;;;;38.17;22.37;;;13.90;62.60;;;;;;5109522;27;46510;-84
2023/09/15 03:38:44;;;;;;;41.87;22.40;;;13.80;63.00;;;;;;5111338;27;46526;-85
2023/09/15 03:41:09;;;;;;;41.57;23.80;;;13.80;63.50;;;;;;5091091;27;46506;-83
2023/09/15 03:43:35;;;;;;;43.10;22.83;;;13.70;63.70;;;;;;5108968;27;46415;-82
2023/09/15 03:46:01;;;;;;;40.23;23.73;;;13.70;64.00;;;;;;5110623;27;46520;-82
2023/09/15 03:48:27;;;;;;;42.87;23.60;;;13.70;64.10;;;;;;5114171;27;46548;-83
2023/09/15 03:50:55;;;;;;;41.23;22.87;;;13.70;64.30;;;;;;5115343;27;46515;-85
2023/09/15 03:53:20;;;;;;;48.03;23.90;;;13.70;64.40;;;;;;5117790;27;46763;-82
2023/09/15 03:55:48;;;;;;;39.43;23.23;;;13.70;64.50;;;;;;5120958;27;46608;-84
2023/09/15 03:58:14;;;;;;;36.97;22.00;;;13.70;64.40;;;;;;5113906;27;45933;-83
2023/09/15 04:00:40;;;;;;;45.07;23.70;;;13.70;64.50;;;;;;5112101;27;46537;-84
2023/09/15 04:03:05;;;;;;;42.00;22.67;;;13.80;64.60;;;;;;5107822;27;47142;-86
2023/09/15 04:05:31;;;;;;;40.60;22.90;;;13.80;64.90;;;;;;5108350;27;46432;-84
2023/09/15 04:07:57;;;;;;;34.80;21.77;;;13.70;65.00;;;;;;5107820;27;46440;-82
2023/09/15 04:10:23;;;;;;;43.37;22.30;;;13.70;65.00;;;;;;5111242;27;46355;-85
2023/09/15 04:12:49;;;;;;;37.90;21.77;;;13.80;65.20;;;;;;5113951;27;46331;-83
2023/09/15 04:15:15;;;;;;;45.43;23.60;;;13.70;65.20;;;;;;5110372;27;46684;-83
2023/09/15 04:17:41;;;;;;;55.33;23.10;;;13.70;65.30;;;;;;5092003;27;46403;-84
2023/09/15 04:20:09;;;;;;;38.43;21.30;;;13.70;65.60;;;;;;5111497;27;46664;-82
2023/09/15 04:22:38;;;;;;;43.40;22.20;;;13.60;65.60;;;;;;5094653;27;48086;-85
2023/09/15 04:25:05;;;;;;;39.50;22.60;;;13.70;65.60;;;;;;5110068;27;45895;-82
2023/09/15 04:27:32;;;;;;;38.70;23.60;;;13.60;65.40;;;;;;5116579;27;46541;-83
2023/09/15 04:29:59;;;;;;;37.80;22.77;;;13.60;65.80;;;;;;5117910;27;46223;-84
2023/09/15 04:32:24;;;;;;;41.60;23.30;;;13.60;66.00;;;;;;5119613;27;47452;-83
2023/09/15 04:34:51;;;;;;;40.27;22.83;;;13.50;66.30;;;;;;5111824;27;46400;-82
2023/09/15 04:37:19;;;;;;;45.90;23.50;;;13.70;66.60;;;;;;5098459;27;46444;-82
2023/09/15 04:39:45;;;;;;;40.50;23.90;;;13.50;66.60;;;;;;5095301;27;46649;-83
2023/09/15 04:42:12;;;;;;;42.57;23.10;;;13.60;66.90;;;;;;5106226;27;48275;-83
2023/09/15 04:44:37;;;;;;;43.73;24.07;;;13.50;67.00;;;;;;5109304;27;46492;-84
2023/09/15 04:47:03;;;;;;;48.67;25.13;;;13.50;67.20;;;;;;5109410;27;46920;-83
2023/09/15 04:49:29;;;;;;;43.63;23.13;;;13.50;67.10;;;;;;5107263;27;46598;-84
2023/09/15 04:51:55;;;;;;;52.47;29.20;;;13.50;67.50;;;;;;5108131;27;46771;-83
2023/09/15 04:54:20;;;;;;;51.57;26.30;;;13.50;67.60;;;;;;5106546;27;46531;-82
2023/09/15 04:56:46;;;;;;;57.40;25.73;;;13.50;67.60;;;;;;5108298;27;46471;-84
2023/09/15 04:59:18;;;;;;;43.20;23.10;;;13.50;67.30;;;;;;5093933;27;46592;-84
2023/09/15 05:01:45;;;;;;;49.73;23.90;;;13.50;67.20;;;;;;5093056;27;48363;-83
2023/09/15 05:04:11;;;;;;;43.30;23.67;;;13.50;67.30;;;;;;5091926;27;46422;-81
2023/09/15 05:06:37;;;;;;;40.00;23.60;;;13.60;67.10;;;;;;5099514;27;46451;-82
2023/09/15 05:09:10;;;;;;;41.70;23.30;;;13.70;66.70;;;;;;5110853;27;46298;-81
2023/09/15 05:11:37;;;;;;;42.87;24.27;;;13.80;66.30;;;;;;5110639;27;46603;-83
2023/09/15 05:14:03;;;;;;;41.20;22.20;;;14.10;65.60;;;;;;5092678;27;46577;-84
2023/09/15 05:16:29;;;;;;;40.03;22.17;;;14.30;65.10;;;;;;5092434;27;46484;-84
2023/09/15 05:18:55;;;;;;;41.93;22.20;;;14.40;64.70;;;;;;5113363;27;46631;-83
2023/09/15 05:21:21;;;;;;;37.53;22.63;;;14.40;64.70;;;;;;5112511;27;46505;-84
2023/09/15 05:23:46;;;;;;;37.60;22.67;;;14.60;64.50;;;;;;5093359;27;46401;-84
2023/09/15 05:26:12;;;;;;;39.00;21.20;;;14.80;64.50;;;;;;5115318;27;46664;-86
2023/09/15 05:28:37;;;;;;;37.40;22.50;;;14.70;65.80;;;;;;5113008;27;46749;-85
2023/09/15 05:31:03;;;;;;;32.50;20.20;;;14.90;64.50;;;;;;5101553;27;48762;-85
2023/09/15 05:33:28;;;;;;;44.97;24.50;;;14.80;64.30;;;;;;5107485;27;46493;-82
2023/09/15 05:35:55;;;;;;;44.80;26.20;;;14.90;64.10;;;;;;5115597;27;46469;-83
2023/09/15 05:38:22;;;;;;;42.40;24.40;;;14.90;64.50;;;;;;5121449;27;46507;-82
2023/09/15 05:40:49;;;;;;;41.33;24.40;;;14.90;64.60;;;;;;5115245;27;46666;-84
2023/09/15 05:43:16;;;;;;;55.33;25.20;;;15.00;64.70;;;;;;5108150;27;46497;-83
2023/09/15 05:45:42;;;;;;;46.90;25.63;;;15.00;64.70;;;;;;5111212;27;46454;-82
2023/09/15 05:48:12;;;;;;;42.73;25.03;;;15.10;64.70;;;;;;5092966;27;46941;-84
2023/09/15 05:50:38;;;;;;;51.83;25.67;;;15.00;64.80;;;;;;5109514;27;46627;-82
2023/09/15 05:53:04;;;;;;;57.93;23.00;;;15.00;64.70;;;;;;5093399;27;46424;-82
2023/09/15 05:55:31;;;;;;;80.93;25.50;;;15.00;65.00;;;;;;5109140;27;46542;-81
2023/09/15 05:57:56;;;;;;;77.93;25.87;;;15.00;65.20;;;;;;5108839;27;46467;-83
2023/09/15 06:00:22;;;;;;;50.53;26.60;;;15.10;65.70;;;;;;5109467;27;47091;-83
2023/09/15 06:02:48;;;;;;;58.90;25.10;;;15.00;65.60;;;;;;5108430;27;46897;-82
2023/09/15 06:05:14;;;;;;;54.57;26.50;;;15.00;65.70;;;;;;5091856;27;46714;-81
2023/09/15 06:07:39;;;;;;;52.97;26.00;;;15.00;65.80;;;;;;5107091;27;46777;-83
2023/09/15 06:10:06;;;;;;;59.97;25.83;;;15.10;65.90;;;;;;5107386;27;47051;-82
2023/09/15 06:12:32;;;;;;;55.17;26.13;;;15.10;66.00;;;;;;5110906;27;46517;-81
2023/09/15 06:14:58;;;;;;;54.00;25.37;;;15.10;66.10;;;;;;5106943;27;46471;-80
2023/09/15 06:17:24;;;;;;;74.77;25.33;;;15.20;66.00;;;;;;5106064;27;46599;-79
2023/09/15 06:19:50;;;;;;;49.77;24.23;;;15.30;66.20;;;;;;5106501;27;47389;-83
2023/09/15 06:22:15;;;;;;;57.87;26.43;;;15.20;66.30;;;;;;5091033;27;46593;-83
2023/09/15 06:24:41;;;;;;;51.63;25.40;;;15.20;66.30;;;;;;5106575;27;46492;-83
2023/09/15 06:27:07;;;;;;;55.27;26.90;;;15.30;66.30;;;;;;5092760;27;46479;-80
2023/09/15 06:29:33;;;;;;;47.37;24.00;;;15.40;66.40;;;;;;5105400;27;47024;-81
2023/09/15 06:31:59;;;;;;;53.30;26.27;;;15.40;66.30;;;;;;5096724;27;45925;-84
2023/09/15 06:34:25;;;;;;;47.00;26.50;;;15.40;66.30;;;;;;5092952;27;46863;-81
2023/09/15 06:36:50;;;;;;;50.57;28.37;;;15.50;66.30;;;;;;5106056;27;46080;-83
2023/09/15 06:39:16;;;;;;;76.13;27.47;;;15.50;66.40;;;;;;5090520;27;48374;-79
2023/09/15 06:41:42;;;;;;;57.73;26.67;;;15.50;66.20;;;;;;5106252;27;46422;-80
2023/09/15 06:44:10;;;;;;;52.57;27.47;;;15.50;66.50;;;;;;5104074;27;46431;-79
2023/09/15 06:46:35;;;;;;;54.47;29.13;;;15.50;67.60;;;;;;5096421;27;46873;-80
2023/09/15 06:49:01;;;;;;;56.00;26.37;;;15.70;66.40;;;;;;5106659;27;46738;-83
2023/09/15 06:51:27;;;;;;;49.00;26.97;;;15.70;66.10;;;;;;5105236;27;46485;-84
2023/09/15 06:53:53;;;;;;;57.50;27.73;;;15.80;66.20;;;;;;5105152;27;46643;-80
2023/09/15 06:56:19;;;;;;;48.30;26.83;;;15.80;66.10;;;;;;5103032;27;46788;-82
2023/09/15 06:58:44;;;;;;;49.40;27.27;;;15.80;66.20;;;;;;5090194;27;48656;-80
2023/09/15 07:01:10;;;;;;;48.60;27.17;;;15.90;66.00;;;;;;5107270;27;46541;-82
2023/09/15 07:03:35;;;;;;;45.70;26.20;;;15.90;65.80;;;;;;5089388;27;46465;-79
2023/09/15 07:06:02;;;;;;;58.70;29.20;;;15.90;65.80;;;;;;5105239;27;45910;-81
2023/09/15 07:08:27;;;;;;;53.67;27.70;;;15.90;65.90;;;;;;5107249;27;46383;-80
2023/09/15 07:10:53;;;;;;;53.80;28.53;;;16.00;65.80;;;;;;5110271;27;46743;-80
2023/09/15 07:13:18;;;;;;;48.03;28.20;;;16.00;65.90;;;;;;5109782;27;46397;-82
2023/09/15 07:15:45;;;;;;;54.87;28.53;;;16.20;65.50;;;;;;5110484;27;46691;-84
2023/09/15 07:18:10;;;;;;;45.40;27.07;;;16.40;65.20;;;;;;5094061;27;47918;-83
2023/09/15 07:20:36;;;;;;;44.90;26.87;;;16.50;64.60;;;;;;5100136;27;46450;-80
2023/09/15 07:23:03;;;;;;;42.70;24.60;;;16.70;64.10;;;;;;5107353;27;46685;-83
2023/09/15 07:25:29;;;;;;;47.53;27.23;;;16.70;65.00;;;;;;5084090;27;46786;-79
2023/09/15 07:27:55;;;;;;;45.73;25.47;;;16.70;64.00;;;;;;5103290;27;46988;-82
2023/09/15 07:30:20;;;;;;;38.17;23.33;;;16.80;64.30;;;;;;5103192;27;46319;-81
2023/09/15 07:32:46;;;;;;;41.80;24.43;;;16.70;64.50;;;;;;5087224;27;46548;-80
2023/09/15 07:35:12;;;;;;;39.67;25.20;;;16.70;64.60;;;;;;5102206;27;47208;-81
2023/09/15 07:37:42;;;;;;;40.30;23.73;;;16.70;64.50;;;;;;5078888;27;48089;-82
2023/09/15 07:40:08;;;;;;;41.57;23.20;;;16.80;64.50;;;;;;5089867;27;46575;-81
2023/09/15 07:42:34;;;;;;;38.93;24.23;;;17.00;64.10;;;;;;5104127;27;46544;-79
2023/09/15 07:45:02;;;;;;;38.13;23.20;;;17.00;63.80;;;;;;5105541;27;46625;-84
2023/09/15 07:47:27;;;;;;;36.43;22.87;;;17.10;63.50;;;;;;5104142;27;46827;-81
2023/09/15 07:49:53;;;;;;;34.93;21.70;;;17.20;63.40;;;;;;5102789;27;46454;-82
2023/09/15 07:52:19;;;;;;;34.00;20.03;;;17.30;63.20;;;;;;5104141;27;46482;-83
2023/09/15 07:54:45;;;;;;;30.83;20.60;;;17.30;63.10;;;;;;5086765;27;46589;-80
2023/09/15 07:57:11;;;;;;;31.23;20.60;;;17.30;63.10;;;;;;5101564;27;46960;-84
2023/09/15 07:59:36;;;;;;;29.10;19.90;;;17.30;62.90;;;;;;5093013;27;46453;-79
2023/09/15 08:02:04;;;;;;;33.00;21.10;;;17.30;62.80;;;;;;5103663;27;46612;-80
2023/09/15 08:04:30;;;;;;;30.90;19.50;;;17.30;62.80;;;;;;5090513;27;46743;-79
2023/09/15 08:06:55;;;;;;;28.83;18.90;;;17.40;62.60;;;;;;5088900;27;48185;-80
2023/09/15 08:09:21;;;;;;;28.00;18.87;;;17.60;62.60;;;;;;5107578;27;46485;-82
2023/09/15 08:11:47;;;;;;;32.13;19.50;;;17.50;62.30;;;;;;5102479;27;46814;-81
2023/09/15 08:14:12;;;;;;;31.43;19.10;;;17.60;62.20;;;;;;5106377;27;46771;-81
2023/09/15 08:16:38;;;;;;;32.40;19.60;;;17.70;61.80;;;;;;5088381;27;48255;-81
2023/09/15 08:19:04;;;;;;;34.20;19.50;;;17.60;61.50;;;;;;5103933;27;46556;-83
2023/09/15 08:21:30;;;;;;;29.03;17.83;;;17.60;61.50;;;;;;5104691;27;46525;-82
2023/09/15 08:23:56;;;;;;;34.17;20.80;;;17.70;61.50;;;;;;5098980;27;46517;-83
2023/09/15 08:26:21;;;;;;;36.17;20.67;;;17.70;61.50;;;;;;5086765;27;48463;-82
2023/09/15 08:28:47;;;;;;;33.37;20.50;;;17.60;61.60;;;;;;5102925;27;46707;-84
2023/09/15 08:31:13;;;;;;;33.13;21.40;;;17.80;61.50;;;;;;5102665;27;46490;-80
2023/09/15 08:33:38;;;;;;;32.37;19.67;;;18.10;60.80;;;;;;5103791;27;46523;-79
2023/09/15 08:36:04;;;;;;;29.30;18.23;;;18.30;59.80;;;;;;5102753;27;47214;-82
2023/09/15 08:38:31;;;;;;;31.60;18.57;;;18.50;59.50;;;;;;5103606;27;46809;-82
2023/09/15 08:41:12;;;;;;;31.13;19.50;;;18.50;59.50;;;;;;5103278;27;46730;-85
2023/09/15 08:43:37;;;;;;;28.93;18.37;;;18.60;59.60;;;;;;5088257;27;47038;-83
2023/09/15 08:46:05;;;;;;;30.67;17.87;;;18.70;59.70;;;;;;5089950;27;48464;-82
2023/09/15 08:48:38;;;;;;;34.00;20.43;;;19.00;59.00;;;;;;5092109;27;46443;-86
2023/09/15 08:51:05;;;;;;;34.57;18.77;;;18.90;58.60;;;;;;5102253;27;46742;-82
2023/09/15 08:53:31;;;;;;;29.77;19.60;;;19.10;58.40;;;;;;5087884;27;46475;-80
2023/09/15 08:56:00;;;;;;;31.73;19.87;;;19.20;57.90;;;;;;5102897;27;46645;-84
2023/09/15 08:58:26;;;;;;;31.33;19.60;;;19.20;57.70;;;;;;5084177;27;46398;-81
2023/09/15 09:00:54;;;;;;;34.13;19.80;;;19.10;57.40;;;;;;5090824;27;46786;-84
2023/09/15 09:03:23;;;;;;;27.73;18.50;;;19.10;57.50;;;;;;5103475;27;46441;-83
2023/09/15 09:05:49;;;;;;;26.07;16.80;;;19.30;57.00;;;;;;5105406;27;46592;-79
2023/09/15 09:08:18;;;;;;;25.53;17.43;;;19.40;56.90;;;;;;5107001;27;46547;-82
2023/09/15 09:10:44;;;;;;;26.87;16.67;;;19.40;56.30;;;;;;5111096;27;46953;-80
2023/09/15 09:13:10;;;;;;;23.60;16.33;;;19.30;56.60;;;;;;5091016;27;46357;-82
2023/09/15 09:15:37;;;;;;;28.53;16.50;;;19.50;56.40;;;;;;5092884;27;46802;-80
2023/09/15 09:18:13;;;;;;;25.13;16.80;;;19.70;55.80;;;;;;5104024;27;46646;-82
2023/09/15 09:20:39;;;;;;;26.33;16.67;;;19.80;55.40;;;;;;5086076;27;46449;-80
2023/09/15 09:23:07;;;;;;;23.07;15.70;;;20.00;54.80;;;;;;5103040;27;46520;-83
2023/09/15 09:25:34;;;;;;;28.40;16.83;;;20.00;54.40;;;;;;5094521;27;48742;-82
2023/09/15 09:28:01;;;;;;;30.10;18.60;;;20.10;54.00;;;;;;5104131;27;46706;-85
2023/09/15 09:30:29;;;;;;;27.73;17.73;;;20.00;53.50;;;;;;5107039;27;46492;-79
2023/09/15 09:32:58;;;;;;;26.57;16.00;;;19.90;53.90;;;;;;5107154;27;46494;-79
2023/09/15 09:35:24;;;;;;;21.07;15.00;;;20.00;53.70;;;;;;5106021;27;46481;-82
2023/09/15 09:37:50;;;;;;;27.17;16.13;;;20.30;53.10;;;;;;5103257;27;46457;-80
2023/09/15 09:40:18;;;;;;;22.37;16.00;;;20.20;52.20;;;;;;5075862;27;46833;-82
2023/09/15 09:42:44;;;;;;;26.37;17.13;;;20.20;52.40;;;;;;5104207;27;46518;-78
2023/09/15 09:45:10;;;;;;;23.77;15.70;;;20.10;53.00;;;;;;5106536;27;47093;-83
2023/09/15 09:47:36;;;;;;;23.77;16.30;;;20.10;53.30;;;;;;5106620;27;45826;-80
2023/09/15 09:50:06;;;;;;;24.90;16.47;;;20.40;53.00;;;;;;5088686;27;46759;-84
2023/09/15 09:52:33;;;;;;;22.40;14.67;;;20.60;52.60;;;;;;5106300;27;46777;-80
2023/09/15 09:55:05;;;;;;;20.90;14.63;;;20.90;52.00;;;;;;5104899;27;46476;-81
2023/09/15 09:57:32;;;;;;;21.47;14.73;;;21.00;51.60;;;;;;5102200;27;46688;-79
2023/09/15 09:59:58;;;;;;;26.00;16.00;;;21.20;51.10;;;;;;5107427;27;46648;-83
2023/09/15 10:02:24;;;;;;;20.73;13.83;;;21.40;50.60;;;;;;5105249;27;46200;-80
2023/09/15 10:04:49;;;;;;;21.10;14.30;;;21.60;49.80;;;;;;5089385;27;49346;-84
2023/09/15 10:07:15;;;;;;;21.63;14.10;;;21.80;49.30;;;;;;5110113;27;45978;-80
2023/09/15 10:09:42;;;;;;;21.57;14.07;;;21.80;47.60;;;;;;5097772;27;46843;-83
2023/09/15 10:12:10;;;;;;;20.60;13.07;;;21.90;42.70;;;;;;5108358;27;46626;-85
2023/09/15 10:14:36;;;;;;;18.30;12.60;;;22.10;40.80;;;;;;5108863;27;46720;-85
2023/09/15 10:17:02;;;;;;;19.90;14.10;;;22.10;40.60;;;;;;5096203;27;46931;-83
2023/09/15 10:19:29;;;;;;;18.87;13.00;;;22.00;40.60;;;;;;5110811;27;47038;-82
2023/09/15 10:21:57;;;;;;;20.87;13.53;;;22.10;40.80;;;;;;5107092;27;46176;-82
2023/09/15 10:24:23;;;;;;;23.77;14.07;;;22.10;40.80;;;;;;5088457;27;49183;-80
2023/09/15 10:26:48;;;;;;;21.17;14.17;;;22.10;40.50;;;;;;5105853;27;46526;-82
2023/09/15 10:29:15;;;;;;;20.43;13.60;;;22.10;40.30;;;;;;5104574;27;47057;-82
2023/09/15 10:31:42;;;;;;;18.10;12.13;;;22.10;40.20;;;;;;5106902;27;46620;-83
2023/09/15 10:34:08;;;;;;;22.13;13.33;;;22.20;39.70;;;;;;5089012;27;48375;-81
2023/09/15 10:36:34;;;;;;;20.07;13.70;;;22.30;39.30;;;;;;5105922;27;46594;-81
2023/09/15 10:39:17;;;;;;;16.50;12.10;;;22.40;38.80;;;;;;5089400;27;46487;-83
2023/09/15 10:41:43;;;;;;;15.87;11.83;;;22.30;38.00;;;;;;5107822;27;46661;-83
2023/09/15 10:44:09;;;;;;;18.63;11.57;;;22.40;38.10;;;;;;5105147;27;46924;-80
2023/09/15 10:46:39;;;;;;;19.70;13.97;;;22.40;37.90;;;;;;5105641;27;46425;-82
2023/09/15 10:49:19;;;;;;;20.10;13.70;;;22.50;37.90;;;;;;5104718;27;47177;-80
2023/09/15 10:51:54;;;;;;;17.30;13.20;;;22.50;37.00;;;;;;5103398;27;46357;-81
2023/09/15 10:54:21;;;;;;;18.47;13.07;;;22.50;36.40;;;;;;5102716;27;46414;-81
2023/09/15 10:56:48;;;;;;;17.73;11.97;;;22.50;36.30;;;;;;5103159;27;46551;-80
2023/09/15 10:59:16;;;;;;;19.00;12.00;;;22.30;36.10;;;;;;5102536;27;46898;-82
2023/09/15 11:01:44;;;;;;;18.67;12.40;;;22.30;36.20;;;;;;5106738;27;46493;-81
2023/09/15 11:04:17;;;;;;;17.43;13.13;;;22.40;36.20;;;;;;5105877;27;46795;-84
2023/09/15 11:06:46;;;;;;;19.20;11.67;;;22.50;36.30;;;;;;5106248;27;46987;-82
2023/09/15 11:09:13;;;;;;;19.63;12.20;;;22.60;36.40;;;;;;5096966;27;46371;-82
2023/09/15 11:11:46;;;;;;;18.93;12.43;;;22.60;36.40;;;;;;5087263;27;46574;-81
2023/09/15 11:14:13;;;;;;;15.43;11.70;;;22.70;35.90;;;;;;5103391;27;47154;-83
2023/09/15 11:16:44;;;;;;;16.00;11.13;;;22.80;35.70;;;;;;5104653;27;45879;-82
2023/09/15 11:19:11;;;;;;;18.70;12.30;;;22.80;35.30;;;;;;5085463;27;46124;-82
2023/09/15 11:21:36;;;;;;;17.70;11.77;;;22.80;35.40;;;;;;5104106;27;46436;-85
2023/09/15 11:24:03;;;;;;;18.00;12.90;;;22.80;35.50;;;;;;5103662;27;47561;-83
2023/09/15 11:26:29;;;;;;;18.37;13.03;;;22.70;35.60;;;;;;5105319;27;46841;-81
2023/09/15 11:28:55;;;;;;;18.00;12.20;;;22.50;36.40;;;;;;5104366;27;46856;-80
2023/09/15 11:31:22;;;;;;;14.40;10.03;;;22.40;36.20;;;;;;5105641;27;46517;-83
2023/09/15 11:33:48;;;;;;;18.33;10.07;;;22.40;36.20;;;;;;5104304;27;46484;-84
2023/09/15 11:36:14;;;;;;;15.20;11.00;;;22.50;35.40;;;;;;5105212;27;46767;-84
2023/09/15 11:38:39;;;;;;;16.07;11.23;;;22.40;34.60;;;;;;5089124;27;47098;-85
2023/09/15 11:41:06;;;;;;;12.67;9.47;;;22.30;34.50;;;;;;5106299;27;46786;-85
2023/09/15 11:43:32;;;;;;;14.47;10.13;;;22.20;34.10;;;;;;5092727;27;48631;-86
2023/09/15 11:45:59;;;;;;;12.40;9.50;;;22.30;33.90;;;;;;5094320;27;46737;-83
2023/09/15 11:48:24;;;;;;;12.70;9.30;;;22.40;33.80;;;;;;5107799;27;46536;-86
2023/09/15 11:50:50;;;;;;;13.77;8.70;;;22.70;33.30;;;;;;5087445;27;46531;-79
2023/09/15 11:53:26;;;;;;;11.77;8.90;;;22.90;32.40;;;;;;5083360;27;48649;-83
2023/09/15 11:55:51;;;;;;;13.83;9.10;;;23.10;31.00;;;;;;5094733;27;46556;-82
2023/09/15 11:58:17;;;;;;;12.00;8.50;;;23.20;30.50;;;;;;5101618;27;47146;-84
2023/09/15 12:00:43;;;;;;;11.00;8.57;;;23.40;30.00;;;;;;5084432;27;46557;-86
2023/09/15 12:03:09;;;;;;;11.87;8.60;;;23.50;29.40;;;;;;5089678;27;48420;-80
2023/09/15 12:05:35;;;;;;;12.40;8.80;;;23.60;29.00;;;;;;5097775;27;46463;-86
2023/09/15 12:08:02;;;;;;;12.37;8.73;;;23.70;28.80;;;;;;5110736;27;45819;-85
2023/09/15 12:10:28;;;;;;;12.53;8.17;;;24.00;28.50;;;;;;5107007;27;46240;-84
2023/09/15 12:12:58;;;;;;;13.00;8.07;;;24.10;28.30;;;;;;5100353;27;46835;-83
2023/09/15 12:15:25;;;;;;;13.33;8.80;;;24.20;27.70;;;;;;5086725;27;47510;-83
2023/09/15 12:17:52;;;;;;;14.60;8.83;;;24.20;26.70;;;;;;5102517;27;45894;-84
2023/09/15 12:20:24;;;;;;;10.00;7.37;;;24.20;26.50;;;;;;5083296;27;46450;-82
2023/09/15 12:22:52;;;;;;;12.30;9.27;;;24.40;26.50;;;;;;5094326;27;48210;-83
2023/09/15 12:25:18;;;;;;;13.40;8.03;;;24.50;25.10;;;;;;5102145;27;46795;-85
2023/09/15 12:27:44;;;;;;;13.77;9.27;;;24.80;24.80;;;;;;5085982;27;46846;-82